createdAt,value
2022-09-16T00:05:32.362Z,79.59
2022-09-16T00:21:15.239Z,79.37
2022-09-16T00:36:57.908Z,79.53
2022-09-16T00:52:40.070Z,80.41
2022-09-16T01:08:22.847Z,82.38
2022-09-16T01:24:05.872Z,83.96
2022-09-16T01:39:48.846Z,85.53
2022-09-16T01:55:31.830Z,86.14
2022-09-16T02:11:14.847Z,87.54
2022-09-16T02:26:56.917Z,88.88
2022-09-16T02:42:39.773Z,89.24
2022-09-16T02:58:22.572Z,89
2022-09-16T03:14:05.468Z,89.16
2022-09-16T03:29:47.725Z,89.26
2022-09-16T03:45:29.869Z,89.57
2022-09-16T04:01:12.799Z,89.97
2022-09-16T04:16:54.922Z,90.09
2022-09-16T04:32:37.141Z,90.21
2022-09-16T04:48:20.199Z,90.84
2022-09-16T05:04:02.365Z,90.2
2022-09-16T05:19:44.821Z,89.95
2022-09-16T05:35:27.850Z,89.64
2022-09-16T05:51:10.230Z,89.19
2022-09-16T06:06:53.239Z,87.25
2022-09-16T06:22:35.583Z,85.69
2022-09-16T06:38:18.241Z,84.09
2022-09-16T06:54:00.351Z,81.54
2022-09-16T07:09:42.993Z,78.99
2022-09-16T07:25:25.991Z,74.4
2022-09-16T07:41:08.852Z,74.22
2022-09-16T07:56:51.394Z,70.37
2022-09-16T08:12:34.203Z,67.75
2022-09-16T08:28:16.643Z,66.31
2022-09-16T08:43:58.806Z,63.85
2022-09-16T08:59:41.776Z,61.15
2022-09-16T09:15:24.321Z,59.49
2022-09-16T09:31:07.087Z,58.69
2022-09-16T09:31:54.409Z,58.42
2022-09-16T09:47:36.535Z,53.5
2022-09-16T10:03:18.787Z,45.49
2022-09-16T10:19:01.129Z,45.12
2022-09-16T10:34:44.094Z,43.64
2022-09-16T10:50:27.057Z,43.25
2022-09-16T11:06:09.808Z,44.27
2022-09-16T11:21:51.910Z,41.34
2022-09-16T11:37:34.578Z,39.46
2022-09-16T11:53:17.502Z,33.88
2022-09-16T12:08:59.515Z,33.45
2022-09-16T12:24:41.806Z,31.39
2022-09-16T12:40:24.537Z,35.34
2022-09-16T12:56:06.569Z,36.28
2022-09-16T13:11:49.289Z,41.13
2022-09-16T13:27:31.726Z,44.02
2022-09-16T13:43:14.034Z,35.67
2022-09-16T13:58:56.352Z,39.8
2022-09-16T14:14:38.618Z,37.48
2022-09-16T14:30:21.188Z,34.49
2022-09-16T14:46:03.668Z,28.03
2022-09-16T15:01:46.057Z,29.37
2022-09-16T15:17:29.078Z,33.92
2022-09-16T15:33:11.152Z,34.57
2022-09-16T15:48:53.992Z,37.33
2022-09-16T16:04:36.420Z,37.17
2022-09-16T16:20:18.810Z,38.47
2022-09-16T16:36:01.734Z,39.76
2022-09-16T16:51:44.617Z,41.16
2022-09-16T17:07:27.479Z,43.38
2022-09-16T17:23:09.913Z,43.83
2022-09-16T17:38:52.848Z,46.15
2022-09-16T18:10:17.828Z,49.75
2022-09-16T18:26:00.383Z,51.52
2022-09-16T18:41:43.303Z,52.86
2022-09-16T18:57:25.683Z,53.98
2022-09-16T19:13:08.830Z,54.3
2022-09-16T19:28:51.790Z,54.29
2022-09-16T19:44:34.363Z,55.11
2022-09-16T20:00:17.030Z,60.65
2022-09-16T20:15:59.544Z,72.33
2022-09-16T20:31:41.939Z,80.65
2022-09-16T20:47:24.385Z,85.57
2022-09-16T21:03:06.587Z,89
2022-09-16T21:18:49.554Z,90.56
2022-09-16T21:34:31.883Z,91.8
2022-09-16T21:50:15.036Z,93.17
2022-09-16T22:05:57.938Z,93.92
2022-09-16T22:21:40.858Z,95
2022-09-16T22:37:23.287Z,96.14
2022-09-16T22:53:05.662Z,96.91
2022-09-16T23:08:48.226Z,97.41
2022-09-16T23:24:30.514Z,97.78
2022-09-16T23:40:13.233Z,98.46
2022-09-16T23:55:56.153Z,98.82
